KCKV/CKV METAR and TAF weather

Enter ICAO airport designator
Station Type Date Time Source
KCKV METAR 2023/09/27 01:52 UTC NOAA

KCKV 270152Z AUTO 00000KT 10SM CLR 21/17 A3004 RMK AO2 SLP167 T02110172


Station Type Date Time Source
KCKV Decoded METAR 2023/09/27 01:52 UTC NOAA

CLARKSVILLE OUTLAW FIELD, TN, United States (KCKV) 36-37N 87-25W 165M
Sep 26, 2023 - 09:52 PM EDT / 2023.09.27 0152 UTC
Wind: Calm:0
Visibility: 10 mile(s):0
Sky conditions: clear
Temperature: 70.0 F (21.1 C)
Dew Point: 63.0 F (17.2 C)
Relative Humidity: 78%
Pressure (altimeter): 30.04 in. Hg (1017 hPa)
ob: KCKV 270152Z AUTO 00000KT 10SM CLR 21/17 A3004 RMK AO2 SLP167 T02110172
cycle: 2

Station Type Date Time Source
KCKV TAF 2023/09/26 18:22 UTC NOAA

TAF KCKV 261720Z 2618/2718 VRB04KT P6SM FEW050 SCT150

Example: see airport list